sensor_id;sensor_type;location;lat;lon;timestamp;temperature;humidity
21570;DHT22;57598;50.888;4.746;2023-04-01T07:11:37;9.70;99.90
21570;DHT22;57598;50.888;4.746;2023-04-01T07:14:13;9.70;99.90
21570;DHT22;57598;50.888;4.746;2023-04-01T07:16:54;9.80;99.90
21570;DHT22;57598;50.888;4.746;2023-04-01T07:22:58;9.70;99.90
21570;DHT22;57598;50.888;4.746;2023-04-01T08:02:26;9.90;99.90
21570;DHT22;57598;50.888;4.746;2023-04-01T08:05:06;9.90;99.90
21570;DHT22;57598;50.888;4.746;2023-04-01T08:07:39;9.90;99.90
21570;DHT22;57598;50.888;4.746;2023-04-01T08:10:13;10.00;99.90
21570;DHT22;57598;50.888;4.746;2023-04-01T08:12:50;10.00;99.90
21570;DHT22;57598;50.888;4.746;2023-04-01T08:15:22;10.00;99.90
21570;DHT22;57598;50.888;4.746;2023-04-01T08:18:03;10.00;99.90
21570;DHT22;57598;50.888;4.746;2023-04-01T08:20:35;10.00;99.90
21570;DHT22;57598;50.888;4.746;2023-04-01T08:23:07;10.00;99.90
21570;DHT22;57598;50.888;4.746;2023-04-01T08:25:40;10.00;99.90
21570;DHT22;57598;50.888;4.746;2023-04-01T08:28:13;10.10;99.90
21570;DHT22;57598;50.888;4.746;2023-04-01T08:30:43;10.10;99.90
21570;DHT22;57598;50.888;4.746;2023-04-01T08:33:17;10.10;99.90
21570;DHT22;57598;50.888;4.746;2023-04-01T08:35:49;10.00;99.90
21570;DHT22;57598;50.888;4.746;2023-04-01T08:38:19;10.00;99.90
21570;DHT22;57598;50.888;4.746;2023-04-01T08:40:59;10.10;99.90
21570;DHT22;57598;50.888;4.746;2023-04-01T08:43:53;10.10;99.90
21570;DHT22;57598;50.888;4.746;2023-04-01T08:50:19;10.20;99.90
21570;DHT22;57598;50.888;4.746;2023-04-01T08:52:57;10.20;99.90
21570;DHT22;57598;50.888;4.746;2023-04-01T08:55:35;10.20;99.90
21570;DHT22;57598;50.888;4.746;2023-04-01T08:58:24;10.20;99.90
21570;DHT22;57598;50.888;4.746;2023-04-01T09:00:57;10.20;99.90
21570;DHT22;57598;50.888;4.746;2023-04-01T09:06:33;10.10;99.90
21570;DHT22;57598;50.888;4.746;2023-04-01T09:12:35;10.20;99.90
21570;DHT22;57598;50.888;4.746;2023-04-01T09:18:48;10.30;99.90
21570;DHT22;57598;50.888;4.746;2023-04-01T09:21:37;10.40;99.90
21570;DHT22;57598;50.888;4.746;2023-04-01T09:24:26;10.50;99.90
21570;DHT22;57598;50.888;4.746;2023-04-01T09:27:05;10.40;99.90
21570;DHT22;57598;50.888;4.746;2023-04-01T09:30:06;10.50;99.90
21570;DHT22;57598;50.888;4.746;2023-04-01T09:35:38;10.40;99.90
21570;DHT22;57598;50.888;4.746;2023-04-01T09:38:21;10.50;99.90
21570;DHT22;57598;50.888;4.746;2023-04-01T09:40:55;10.50;99.90
21570;DHT22;57598;50.888;4.746;2023-04-01T09:43:27;10.50;99.90
21570;DHT22;57598;50.888;4.746;2023-04-01T09:46:11;10.60;99.90
21570;DHT22;57598;50.888;4.746;2023-04-01T09:49:05;10.60;99.90
21570;DHT22;57598;50.888;4.746;2023-04-01T09:51:48;10.60;99.90
21570;DHT22;57598;50.888;4.746;2023-04-01T09:54:39;10.60;99.90
21570;DHT22;57598;50.888;4.746;2023-04-01T09:57:35;10.60;99.90
21570;DHT22;57598;50.888;4.746;2023-04-01T10:09:50;10.60;99.90
21570;DHT22;57598;50.888;4.746;2023-04-01T10:13:08;10.70;99.90
21570;DHT22;57598;50.888;4.746;2023-04-01T10:16:00;10.70;99.90
21570;DHT22;57598;50.888;4.746;2023-04-01T10:18:55;10.70;99.90
21570;DHT22;57598;50.888;4.746;2023-04-01T10:25:28;10.70;99.90
21570;DHT22;57598;50.888;4.746;2023-04-01T10:37:15;11.30;99.90
21570;DHT22;57598;50.888;4.746;2023-04-01T10:43:45;11.90;99.90
21570;DHT22;57598;50.888;4.746;2023-04-01T10:46:43;11.90;99.90
21570;DHT22;57598;50.888;4.746;2023-04-01T10:55:55;11.60;99.90
21570;DHT22;57598;50.888;4.746;2023-04-01T11:05:16;12.10;99.90
21570;DHT22;57598;50.888;4.746;2023-04-01T11:08:24;12.00;99.90
21570;DHT22;57598;50.888;4.746;2023-04-01T11:11:44;11.90;99.90
21570;DHT22;57598;50.888;4.746;2023-04-01T11:26:50;11.90;99.90
21570;DHT22;57598;50.888;4.746;2023-04-01T11:29:44;11.80;99.90
21570;DHT22;57598;50.888;4.746;2023-04-01T11:32:24;11.80;99.90
21570;DHT22;57598;50.888;4.746;2023-04-01T11:35:02;11.70;99.90
21570;DHT22;57598;50.888;4.746;2023-04-01T11:37:40;11.60;99.90
21570;DHT22;57598;50.888;4.746;2023-04-01T11:40:20;11.50;99.90
21570;DHT22;57598;50.888;4.746;2023-04-01T11:42:58;11.40;99.90
21570;DHT22;57598;50.888;4.746;2023-04-01T11:45:35;11.40;99.90
21570;DHT22;57598;50.888;4.746;2023-04-01T11:48:20;11.50;99.90
21570;DHT22;57598;50.888;4.746;2023-04-01T11:51:03;11.40;99.90
21570;DHT22;57598;50.888;4.746;2023-04-01T11:53:39;11.50;99.90
21570;DHT22;57598;50.888;4.746;2023-04-01T11:56:21;11.50;99.90
21570;DHT22;57598;50.888;4.746;2023-04-01T12:24:49;11.70;99.90
21570;DHT22;57598;50.888;4.746;2023-04-01T12:31:47;11.80;99.90
21570;DHT22;57598;50.888;4.746;2023-04-01T12:34:57;11.90;99.90
21570;DHT22;57598;50.888;4.746;2023-04-01T12:37:33;11.90;99.90
21570;DHT22;57598;50.888;4.746;2023-04-01T12:43:25;12.00;99.90
21570;DHT22;57598;50.888;4.746;2023-04-01T12:46:02;11.80;99.90
21570;DHT22;57598;50.888;4.746;2023-04-01T12:52:07;11.60;99.90
21570;DHT22;57598;50.888;4.746;2023-04-01T13:02:07;11.20;99.90
21570;DHT22;57598;50.888;4.746;2023-04-01T13:08:03;11.40;99.90
21570;DHT22;57598;50.888;4.746;2023-04-01T13:10:53;11.40;99.90
21570;DHT22;57598;50.888;4.746;2023-04-01T13:16:24;11.30;99.90
21570;DHT22;57598;50.888;4.746;2023-04-01T13:18:58;11.30;99.90
21570;DHT22;57598;50.888;4.746;2023-04-01T13:21:34;11.30;99.90
21570;DHT22;57598;50.888;4.746;2023-04-01T13:24:11;11.40;99.90
21570;DHT22;57598;50.888;4.746;2023-04-01T13:26:53;11.30;99.90
21570;DHT22;57598;50.888;4.746;2023-04-01T13:29:25;11.20;99.90
21570;DHT22;57598;50.888;4.746;2023-04-01T13:32:06;11.10;99.90
21570;DHT22;57598;50.888;4.746;2023-04-01T13:34:48;11.10;99.90
21570;DHT22;57598;50.888;4.746;2023-04-01T13:37:28;11.10;99.90
21570;DHT22;57598;50.888;4.746;2023-04-01T13:40:05;11.10;99.90
21570;DHT22;57598;50.888;4.746;2023-04-01T13:42:45;11.10;99.90
21570;DHT22;57598;50.888;4.746;2023-04-01T13:45:16;11.20;99.90
21570;DHT22;57598;50.888;4.746;2023-04-01T13:51:06;11.20;99.90
21570;DHT22;57598;50.888;4.746;2023-04-01T13:53:50;11.20;99.90
21570;DHT22;57598;50.888;4.746;2023-04-01T13:56:38;11.20;99.90
21570;DHT22;57598;50.888;4.746;2023-04-01T13:59:41;11.20;99.90
21570;DHT22;57598;50.888;4.746;2023-04-01T14:02:46;11.20;99.90
21570;DHT22;57598;50.888;4.746;2023-04-01T14:05:29;11.20;99.90
21570;DHT22;57598;50.888;4.746;2023-04-01T14:08:06;11.20;99.90
21570;DHT22;57598;50.888;4.746;2023-04-01T14:10:39;11.30;99.90
21570;DHT22;57598;50.888;4.746;2023-04-01T14:13:12;11.40;99.90
21570;DHT22;57598;50.888;4.746;2023-04-01T14:16:11;11.40;99.90
21570;DHT22;57598;50.888;4.746;2023-04-01T14:19:18;11.40;99.90
21570;DHT22;57598;50.888;4.746;2023-04-01T14:22:05;11.40;99.90
21570;DHT22;57598;50.888;4.746;2023-04-01T14:28:24;11.30;99.90
21570;DHT22;57598;50.888;4.746;2023-04-01T14:31:27;11.30;99.90
21570;DHT22;57598;50.888;4.746;2023-04-01T14:34:05;11.40;99.90
21570;DHT22;57598;50.888;4.746;2023-04-01T15:02:56;11.90;99.90
21570;DHT22;57598;50.888;4.746;2023-04-01T15:05:42;11.90;99.90
21570;DHT22;57598;50.888;4.746;2023-04-01T15:08:22;11.90;99.90
21570;DHT22;57598;50.888;4.746;2023-04-01T15:14:04;11.90;99.90
21570;DHT22;57598;50.888;4.746;2023-04-01T15:16:46;11.90;99.90
21570;DHT22;57598;50.888;4.746;2023-04-01T15:19:24;12.00;99.90
21570;DHT22;57598;50.888;4.746;2023-04-01T15:24:47;11.90;99.90
21570;DHT22;57598;50.888;4.746;2023-04-01T15:30:21;11.70;99.90
21570;DHT22;57598;50.888;4.746;2023-04-01T15:33:07;11.50;99.90
21570;DHT22;57598;50.888;4.746;2023-04-01T15:53:08;11.20;99.90
21570;DHT22;57598;50.888;4.746;2023-04-01T15:55:48;11.20;99.90
21570;DHT22;57598;50.888;4.746;2023-04-01T15:58:59;11.20;99.90
21570;DHT22;57598;50.888;4.746;2023-04-01T16:11:40;11.10;99.90
21570;DHT22;57598;50.888;4.746;2023-04-01T16:14:40;11.10;99.90
21570;DHT22;57598;50.888;4.746;2023-04-01T16:20:12;11.10;99.90
21570;DHT22;57598;50.888;4.746;2023-04-01T16:23:04;11.00;99.90
21570;DHT22;57598;50.888;4.746;2023-04-01T16:25:47;10.90;99.90
21570;DHT22;57598;50.888;4.746;2023-04-01T16:28:23;10.90;99.90
21570;DHT22;57598;50.888;4.746;2023-04-01T16:30:57;10.90;99.90
21570;DHT22;57598;50.888;4.746;2023-04-01T16:33:36;10.80;99.90
21570;DHT22;57598;50.888;4.746;2023-04-01T16:36:11;10.80;99.90
21570;DHT22;57598;50.888;4.746;2023-04-01T16:42:20;10.80;99.90
21570;DHT22;57598;50.888;4.746;2023-04-01T16:45:19;10.80;99.90
21570;DHT22;57598;50.888;4.746;2023-04-01T16:48:20;10.60;99.90
21570;DHT22;57598;50.888;4.746;2023-04-01T16:51:16;10.30;99.90
21570;DHT22;57598;50.888;4.746;2023-04-01T16:53:49;10.40;99.90
21570;DHT22;57598;50.888;4.746;2023-04-01T16:56:21;10.30;99.90
21570;DHT22;57598;50.888;4.746;2023-04-01T16:59:01;10.20;99.90
21570;DHT22;57598;50.888;4.746;2023-04-01T17:01:36;10.20;99.90
21570;DHT22;57598;50.888;4.746;2023-04-01T17:04:13;10.20;99.90
21570;DHT22;57598;50.888;4.746;2023-04-01T17:06:47;10.20;99.90
21570;DHT22;57598;50.888;4.746;2023-04-01T17:09:38;10.20;99.90
21570;DHT22;57598;50.888;4.746;2023-04-01T17:12:13;10.20;99.90
21570;DHT22;57598;50.888;4.746;2023-04-01T17:14:49;10.20;99.90
21570;DHT22;57598;50.888;4.746;2023-04-01T17:20:35;10.10;99.90
21570;DHT22;57598;50.888;4.746;2023-04-01T17:27:21;10.20;99.90
21570;DHT22;57598;50.888;4.746;2023-04-01T17:34:37;10.20;99.90
21570;DHT22;57598;50.888;4.746;2023-04-01T17:41:16;10.20;99.90
21570;DHT22;57598;50.888;4.746;2023-04-01T17:44:45;10.20;99.90
21570;DHT22;57598;50.888;4.746;2023-04-01T17:54:45;10.10;99.90
21570;DHT22;57598;50.888;4.746;2023-04-01T17:57:44;10.10;99.90
21570;DHT22;57598;50.888;4.746;2023-04-01T18:00:23;10.10;99.90
21570;DHT22;57598;50.888;4.746;2023-04-01T18:03:02;10.00;99.90
21570;DHT22;57598;50.888;4.746;2023-04-01T18:06:04;10.00;99.90
21570;DHT22;57598;50.888;4.746;2023-04-01T18:11:43;10.00;99.90
21570;DHT22;57598;50.888;4.746;2023-04-01T18:17:20;10.00;99.90
21570;DHT22;57598;50.888;4.746;2023-04-01T18:19:59;10.00;99.90
21570;DHT22;57598;50.888;4.746;2023-04-01T18:22:36;10.00;99.90
21570;DHT22;57598;50.888;4.746;2023-04-01T18:25:16;10.00;99.90
21570;DHT22;57598;50.888;4.746;2023-04-01T18:27:50;9.90;99.90
21570;DHT22;57598;50.888;4.746;2023-04-01T18:30:26;10.00;99.90
21570;DHT22;57598;50.888;4.746;2023-04-01T18:32:59;10.00;99.90
21570;DHT22;57598;50.888;4.746;2023-04-01T18:35:34;9.90;99.90
21570;DHT22;57598;50.888;4.746;2023-04-01T18:38:11;9.90;99.90
21570;DHT22;57598;50.888;4.746;2023-04-01T18:40:45;9.90;99.90
21570;DHT22;57598;50.888;4.746;2023-04-01T18:43:21;9.90;99.90
21570;DHT22;57598;50.888;4.746;2023-04-01T18:45:54;9.90;99.90
21570;DHT22;57598;50.888;4.746;2023-04-01T18:48:42;9.90;99.90
21570;DHT22;57598;50.888;4.746;2023-04-01T18:51:20;9.90;99.90
21570;DHT22;57598;50.888;4.746;2023-04-01T18:53:52;10.00;99.90
21570;DHT22;57598;50.888;4.746;2023-04-01T18:56:26;9.90;99.90
21570;DHT22;57598;50.888;4.746;2023-04-01T18:59:04;9.90;99.90
